• Join FlightAware (Why Join?)
  • Login
  • US Flag 
04:23AM EDT


 

Airport Tracker/Info


-or-


 

Live Flight TrackerFlight Track Log ✈ NKS904 ✈ 08-Sep-2013 ✈ KDFW - KMCO

Flight Track Log - Related Links

Times and Time Zones

All times are in EDT time to prevent confusion due to time zone crossing. See the NKS904 flight status page for this flight to view local times or setup timezone preferences in your user account.

Time Position Orientation Groundspeed Altitude Reporting Facility
EDT Latitude Longitude Course Direction KTS MPH feet Rate Location/Type
05:11PM 32.8630 -97.0300 181° South 172 198 2,000  Level FlightAware
05:11PM 32.8460 -97.0310 183° South 195 224 2,200 540 Climbing FlightAware
05:11PM 32.8350 -97.0310 180° South 211 243 2,300 1,200 Climbing FlightAware
05:12PM 32.7990 -97.0300 179° South 253 291 3,100 1,620 Climbing FlightAware
05:12PM 32.7900 -97.0260 160° South 256 295 3,400 1,980 Climbing FlightAware
05:12PM 32.7860 -97.0240 157° South 258 297 3,500 2,460 Climbing FlightAware
05:12PM 32.7790 -97.0170 140° Southeast 261 300 3,900 2,580 Climbing FlightAware
05:12PM 32.7730 -97.0080 128° Southeast 263 303 4,200 2,580 Climbing FlightAware
05:13PM 32.7690 -96.9970 113° Southeast 265 305 4,600 3,000 Climbing FlightAware
05:13PM 32.7680 -96.9890 98° East 271 312 4,900 3,000 Climbing FlightAware
05:13PM 32.7720 -96.9560 82° East 274 315 6,000 2,820 Climbing FlightAware
05:13PM 32.7760 -96.9320 79° East 279 321 6,700 2,820 Climbing FlightAware
05:14PM 32.7820 -96.8950 79° East 285 328 7,900 3,120 Climbing FlightAware
05:14PM 32.7870 -96.8650 79° East 282 325 9,000 3,000 Climbing FlightAware
05:15PM 32.7950 -96.8120 80° East 285 328 10,600 1,800 Climbing FlightAware
05:15PM 32.8040 -96.7490 80° East 328 377 11,200 1,140 Climbing FlightAware
05:16PM 32.8140 -96.6860 79° East 352 405 12,000 1,860 Climbing FlightAware
05:16PM 32.8240 -96.6150 80° East 358 412 13,400 2,160 Climbing FlightAware
05:17PM 32.8340 -96.5460 80° East 365 420 14,600 1,980 Climbing FlightAware
05:18PM 32.8440 -96.4820 79° East 369 425 15,700 1,860 Climbing FlightAware
05:18PM 32.8540 -96.4090 81° East 375 432 16,800 1,800 Climbing FlightAware
05:19PM 32.8640 -96.3390 80° East 383 441 17,800 1,560 Climbing FlightAware
05:19PM 32.8670 -96.2620 87° East 393 452 18,600 1,380 Climbing FlightAware
05:20PM 32.8680 -96.1830 89° East 400 460 19,500 1,500 Climbing FlightAware
05:20PM 32.8700 -96.1100 88° East 404 465 20,400 1,440 Climbing FlightAware
05:21PM 32.8710 -96.0300 89° East 412 474 21,200 1,320 Climbing FlightAware
05:22PM 32.8720 -95.9570 89° East 415 478 21,900 1,200 Climbing FlightAware
05:22PM 32.8740 -95.8730 88° East 421 484 22,600 1,200 Climbing FlightAware
05:23PM 32.8750 -95.7890 89° East 425 489 23,400 1,200 Climbing FlightAware
05:23PM 32.8760 -95.7080 89° East 428 493 24,100 1,200 Climbing FlightAware
05:24PM 32.8769 -95.6591 89° East 433 498 24,500 1,260 Climbing FlightAware ADS-B
05:24PM 32.8782 -95.5705 89° East 436 502 25,300 1,260 Climbing FlightAware ADS-B
05:25PM 32.8800 -95.4550 89° East 440 506 26,300 1,200 Climbing FlightAware
05:26PM 32.8810 -95.3730 89° East 439 505 27,000 1,080 Climbing FlightAware
05:26PM 32.8930 -95.2850 81° East 445 512 27,600 960 Climbing FlightAware
05:27PM 32.9023 -95.2275 79° East 446 513 28,000 840 Climbing FlightAware ADS-B
05:27PM 32.9170 -95.1302 80° East 452 520 28,500 780 Climbing FlightAware ADS-B
05:28PM 32.9285 -95.0540 80° East 456 525 29,000 720 Climbing FlightAware ADS-B
05:28PM 32.9407 -94.9734 80° East 463 533 29,300 720 Climbing FlightAware ADS-B
05:29PM 32.9525 -94.8955 80° East 464 534 29,800 1,080 Climbing FlightAware ADS-B
05:29PM 32.9639 -94.8196 80° East 462 532 30,400 1,380 Climbing FlightAware ADS-B
05:30PM 32.9767 -94.7336 80° East 453 521 31,300 1,380 Climbing FlightAware ADS-B
05:31PM 32.9897 -94.6452 80° East 454 522 32,100 1,320 Climbing FlightAware ADS-B
05:31PM 33.0020 -94.5637 80° East 442 509 32,900 960 Climbing FlightAware ADS-B
05:32PM 33.0127 -94.4908 80° East 445 512 33,200 360 Climbing FlightAware ADS-B
05:32PM 33.0250 -94.4050 80° East 446 513 33,400 960 Climbing FlightAware
05:33PM 33.0304 -94.3692 80° East 447 514 34,000 1,680 Climbing FlightAware ADS-B
05:33PM 33.0469 -94.2545 80° East 434 499 35,000 660 Climbing FlightAware ADS-B
05:34PM 33.0596 -94.1666 80° East 432 497 35,000  Level FlightAware ADS-B
05:34PM 33.0699 -94.0955 80° East 434 499 35,000  Level FlightAware ADS-B
05:35PM 33.0804 -94.0215 80° East 436 502 35,000  Level FlightAware ADS-B
05:36PM 33.0921 -93.9405 80° East 436 502 35,000  Level FlightAware ADS-B
05:36PM 33.1079 -93.8290 80° East 436 502 35,000  Level FlightAware ADS-B
05:37PM 33.1183 -93.7559 80° East 436 502 35,000  Level FlightAware ADS-B
05:38PM 33.1379 -93.6148 81° East 434 499 35,000  Level FlightAware ADS-B
05:38PM 33.1492 -93.5329 81° East 434 499 35,000  Level FlightAware ADS-B
05:39PM 33.1593 -93.4601 81° East 434 499 35,000  Level FlightAware ADS-B
05:40PM 33.1690 -93.3880 81° East 434 499 35,000  Level FlightAware
05:40PM 33.1786 -93.3211 80° East 434 499 35,000  Level FlightAware ADS-B
05:41PM 33.1920 -93.2210 81° East 431 496 35,000  Level FlightAware
05:41PM 33.2050 -93.1240 81° East 428 493 35,000  Level FlightAware
05:42PM 33.2150 -93.0560 80° East 428 493 35,000  Level FlightAware
05:42PM 33.2250 -92.9750 82° East 427 491 35,000  Level FlightAware
05:43PM 33.2370 -92.9000 79° East 427 491 35,000  Level FlightAware
05:44PM 33.2470 -92.8270 81° East 427 491 35,000  Level FlightAware
05:44PM 33.2580 -92.7560 79° East 427 491 35,000  Level FlightAware
05:45PM 33.2680 -92.6850 80° East 427 491 35,000  Level FlightAware
05:46PM 33.2790 -92.6110 80° East 427 491 35,000  Level FlightAware
05:46PM 33.2900 -92.5400 79° East 427 491 35,000  Level FlightAware
05:47PM 33.3000 -92.4690 80° East 427 491 35,000  Level FlightAware
05:47PM 33.3110 -92.3980 79° East 427 491 35,000  Level FlightAware
05:48PM 33.3210 -92.3260 81° East 427 491 35,000  Level FlightAware
05:49PM 33.3320 -92.2550 79° East 427 491 35,000  Level FlightAware
05:49PM 33.3420 -92.1840 80° East 427 491 35,000  Level FlightAware
05:50PM 33.3530 -92.1110 80° East 427 491 35,000  Level FlightAware
05:50PM 33.3630 -92.0390 81° East 427 491 35,000  Level FlightAware
05:51PM 33.3740 -91.9680 79° East 427 491 35,000  Level FlightAware
05:52PM 33.3840 -91.8970 80° East 427 491 35,000  Level FlightAware
05:52PM 33.3950 -91.8250 80° East 427 491 35,000 2,280 Level FlightAware
05:52PM 33.0220 -91.6270 156° South 414 476 37,000 2,100 Climbing FlightAware
05:53PM 33.0060 -91.5520 104° East 414 476 37,000  Level FlightAware
05:54PM 32.9910 -91.4820 104° East 414 476 37,000  Level FlightAware
05:54PM 32.9720 -91.3970 105° East 414 476 37,000  Level FlightAware
05:55PM 32.9580 -91.3270 103° East 414 476 37,000  Level FlightAware
05:56PM 32.9290 -91.1960 105° East 413 475 37,000  Level FlightAware
05:56PM 32.9090 -91.1100 105° East 413 475 37,000  Level FlightAware
05:57PM 32.8940 -91.0400 104° East 413 475 37,000  Level FlightAware
05:57PM 32.8750 -90.9560 105° East 412 474 37,000  Level FlightAware
05:58PM 32.8570 -90.8740 105° East 412 474 37,000  Level FlightAware
05:59PM 32.8400 -90.7970 105° East 412 474 37,000  Level FlightAware
05:59PM 32.8220 -90.7120 104° East 411 473 37,000  Level FlightAware
06:00PM 32.8080 -90.6450 104° East 411 473 37,000  Level FlightAware
06:00PM 32.7890 -90.5690 107° East 408 470 37,000  Level FlightAware
06:01PM 32.7630 -90.4530 105° East 406 467 37,000  Level FlightAware
06:02PM 32.7470 -90.3830 105° East 405 466 37,000  Level FlightAware
06:02PM 32.7290 -90.3040 105° East 406 467 37,000  Level FlightAware
06:03PM 32.7130 -90.2350 105° East 405 466 37,000 -120 Level FlightAware
06:04PM 32.6960 -90.1570 104° East 409 471 36,900  Descending FlightAware
06:04PM 32.6790 -90.0820 105° East 411 473 37,000 60 Climbing FlightAware
06:05PM 32.6600 -90.0000 105° East 413 475 37,000  Level FlightAware
06:05PM 32.6450 -89.9340 105° East 412 474 37,000 60 Level FlightAware
06:06PM 32.6260 -89.8540 106° East 410 472 37,100  Climbing FlightAware
06:07PM 32.6070 -89.7730 106° East 409 471 37,000 -120 Descending FlightAware
06:07PM 32.5900 -89.6970 105° East 408 470 37,000  Level FlightAware
06:08PM 32.5740 -89.6290 106° East 408 470 37,000  Level FlightAware
06:08PM 32.5550 -89.5490 106° East 409 471 37,000  Level FlightAware
06:09PM 32.5370 -89.4700 105° East 410 472 37,000  Level FlightAware
06:10PM 32.5190 -89.3940 106° East 412 474 37,000  Level FlightAware
06:10PM 32.5030 -89.3290 106° East 413 475 37,000  Level FlightAware
06:10PM 32.4900 -89.2710 105° East 414 476 37,000  Level FlightAware
06:11PM 32.4640 -89.1640 106° East 417 480 37,000  Level FlightAware
06:12PM 32.4450 -89.0840 106° East 419 482 37,000  Level FlightAware
06:12PM 32.4270 -89.0060 105° East 420 483 37,000  Level FlightAware
06:13PM 32.4110 -88.9380 106° East 422 486 37,000  Level FlightAware
06:14PM 32.3910 -88.8560 106° East 424 488 37,000  Level FlightAware
06:14PM 32.3720 -88.7790 106° East 425 489 37,000  Level FlightAware
06:15PM 32.3520 -88.7030 107° East 426 490 37,000  Level FlightAware
06:15PM 32.3310 -88.6230 107° East 425 489 37,000  Level FlightAware
06:16PM 32.3080 -88.5390 108° East 425 489 37,000  Level FlightAware
06:17PM 32.2870 -88.4600 107° East 423 487 37,000  Level FlightAware
06:17PM 32.2700 -88.3930 107° East 422 486 37,000  Level FlightAware
06:18PM 32.2470 -88.3100 108° East 421 484 37,000  Level FlightAware
06:18PM 32.2260 -88.2290 107° East 421 484 37,000  Level FlightAware
06:19PM 32.2070 -88.1610 108° East 420 483 37,000  Level FlightAware
06:19PM 32.1860 -88.0820 107° East 421 484 37,000  Level FlightAware
06:20PM 32.1650 -88.0060 108° East 421 484 37,000  Level FlightAware
06:21PM 32.1470 -87.9360 107° East 422 486 37,000  Level FlightAware
06:21PM 32.1250 -87.8550 108° East 421 484 37,000  Level FlightAware
06:22PM 32.1060 -87.7870 108° East 420 483 37,000  Level FlightAware
06:22PM 32.0820 -87.6990 108° East 419 482 37,000  Level FlightAware
06:23PM 32.0600 -87.6180 108° East 420 483 37,000  Level FlightAware
06:23PM 32.0420 -87.5540 108° East 421 484 37,000  Level FlightAware
06:24PM 32.0200 -87.4730 108° East 422 486 37,000  Level FlightAware
06:25PM 31.9940 -87.3790 108° East 424 488 37,000  Level FlightAware
06:25PM 31.9740 -87.3070 108° East 424 488 37,000  Level FlightAware
06:26PM 31.9500 -87.2210 108° East 425 489 37,000  Level FlightAware
06:27PM 31.9300 -87.1460 107° East 425 489 37,000  Level FlightAware
06:27PM 31.9080 -87.0680 108° East 425 489 37,000  Level FlightAware
06:28PM 31.8880 -86.9970 108° East 425 489 37,000  Level FlightAware
06:28PM 31.8660 -86.9180 108° East 425 489 37,000  Level FlightAware
06:29PM 31.8420 -86.8340 109° East 426 490 37,000  Level FlightAware
06:29PM 31.8230 -86.7650 108° East 426 490 37,000  Level FlightAware
06:30PM 31.8000 -86.6850 109° East 427 491 37,000  Level FlightAware
06:31PM 31.7790 -86.6100 108° East 427 491 37,000  Level FlightAware
06:31PM 31.7580 -86.5370 109° East 428 493 37,000  Level FlightAware
06:32PM 31.7340 -86.4520 108° East 430 495 37,000  Level FlightAware
06:32PM 31.7140 -86.3810 108° East 431 496 37,000  Level FlightAware
06:33PM 31.6910 -86.3020 109° East 431 496 37,000  Level FlightAware
06:34PM 31.6680 -86.2220 109° East 431 496 37,000  Level FlightAware
06:34PM 31.6470 -86.1480 108° East 431 496 37,000  Level FlightAware
06:35PM 31.6240 -86.0680 109° East 431 496 37,000  Level FlightAware
06:35PM 31.6020 -85.9920 109° East 431 496 37,000  Level FlightAware
06:36PM 31.5780 -85.9110 109° East 431 496 37,000  Level FlightAware
06:36PM 31.5550 -85.8320 109° East 431 496 37,000  Level FlightAware
06:37PM 31.5320 -85.7520 109° East 432 497 37,000  Level FlightAware
06:38PM 31.5110 -85.6810 109° East 432 497 37,000  Level FlightAware
06:38PM 31.4890 -85.6030 108° East 432 497 37,000  Level FlightAware
06:39PM 31.4630 -85.5160 109° East 432 497 37,000  Level FlightAware
06:39PM 31.4420 -85.4450 109° East 431 496 37,000  Level FlightAware
06:40PM 31.4220 -85.3730 108° East 431 496 37,000  Level FlightAware
06:41PM 31.3960 -85.2900 110° East 432 497 37,000  Level FlightAware
06:41PM 31.3760 -85.2200 108° East 432 497 37,000  Level FlightAware
06:42PM 31.3560 -85.1520 109° East 432 497 37,000  Level FlightAware
06:42PM 31.3360 -85.0850 109° East 432 497 37,000  Level FlightAware
06:43PM 31.3160 -85.0170 109° East 432 497 37,000  Level FlightAware
06:44PM 31.2960 -84.9490 109° East 432 497 37,000  Level FlightAware
06:44PM 31.2760 -84.8820 109° East 432 497 37,000  Level FlightAware
06:47PM 31.1110 -84.5330 119° Southeast 438 504 37,000  Level FlightAware
06:47PM 31.0790 -84.4720 121° Southeast 438 504 37,000  Level FlightAware
06:48PM 31.0430 -84.4030 121° Southeast 438 504 37,000  Level FlightAware
06:48PM 30.9890 -84.3050 123° Southeast 440 506 37,000  Level FlightAware
06:49PM 30.9330 -84.2010 122° Southeast 442 509 37,000  Level FlightAware
06:50PM 30.8920 -84.1250 122° Southeast 442 509 37,000  Level FlightAware
06:50PM 30.8540 -84.0540 122° Southeast 442 509 37,000  Level FlightAware
06:51PM 30.8050 -83.9630 122° Southeast 442 509 37,000  Level FlightAware
06:52PM 30.7770 -83.9110 122° Southeast 442 509 37,000  Level FlightAware
06:52PM 30.7290 -83.8230 122° Southeast 444 511 37,000 -780 Level FlightAware
06:53PM 30.6960 -83.7610 122° Southeast 451 519 36,100 -2,040 Descending FlightAware
06:53PM 30.6580 -83.6920 123° Southeast 446 513 34,800 -2,280 Descending FlightAware
06:54PM 30.6150 -83.6120 122° Southeast 440 506 33,300 -2,340 Descending FlightAware
06:55PM 30.5780 -83.5440 122° Southeast 436 502 32,000 -2,580 Descending FlightAware
06:55PM 30.5440 -83.4820 122° Southeast 439 505 30,600 -2,700 Descending FlightAware
06:56PM 30.5030 -83.4070 122° Southeast 444 511 28,900 -1,380 Descending FlightAware
06:56PM 30.4680 -83.3420 122° Southeast 444 511 28,900 -1,620 Level FlightAware
06:57PM 30.4240 -83.2630 123° Southeast 429 494 27,000 -1,680 Descending FlightAware
06:58PM 30.3880 -83.1970 122° Southeast 431 496 27,000  Level FlightAware
06:58PM 30.3500 -83.1300 123° Southeast 430 495 27,000 -360 Level FlightAware
06:59PM 30.3130 -83.0610 122° Southeast 427 491 26,600 -780 Descending FlightAware
06:59PM 30.2760 -82.9950 123° Southeast 424 488 26,100 -540 Descending FlightAware
07:00PM 30.2340 -82.9170 122° Southeast 422 486 25,900 -180 Descending FlightAware
07:01PM 30.2020 -82.8590 123° Southeast 422 486 25,900 -660 Level FlightAware
07:01PM 30.1420 -82.7530 123° Southeast 419 482 25,000 -720 Descending FlightAware
07:02PM 30.1050 -82.6880 123° Southeast 418 481 25,000  Level FlightAware
07:03PM 30.0720 -82.6270 122° Southeast 418 481 25,000  Level FlightAware
07:03PM 30.0310 -82.5560 124° Southeast 414 476 25,000  Level FlightAware
07:04PM 30.0000 -82.5000 123° Southeast 416 479 25,000  Level FlightAware
07:04PM 29.9780 -82.4690 129° Southeast 420 483 25,000  Level FlightAware
07:04PM 29.9450 -82.4440 147° Southeast 425 489 25,000  Level FlightAware
07:05PM 29.8840 -82.4220 163° South 428 493 25,000  Level FlightAware
07:06PM 29.8140 -82.3970 163° South 430 495 25,000  Level FlightAware
07:06PM 29.7450 -82.3720 163° South 430 495 25,000  Level FlightAware
07:07PM 29.6750 -82.3460 162° South 429 494 25,000  Level FlightAware
07:07PM 29.6160 -82.3250 163° South 429 494 25,000 -660 Level FlightAware
07:08PM 29.5480 -82.3010 163° South 430 495 24,300 -1,620 Descending FlightAware
07:08PM 29.4820 -82.2770 162° South 426 490 23,100 -2,100 Descending FlightAware
07:09PM 29.4120 -82.2520 163° South 422 486 21,800 -2,100 Descending FlightAware
07:10PM 29.3500 -82.2300 163° South 418 481 20,700 -2,040 Descending FlightAware
07:10PM 29.2830 -82.2060 163° South 412 474 19,500 -2,100 Descending FlightAware
07:11PM 29.2160 -82.1820 163° South 403 464 18,200 -2,040 Descending FlightAware
07:11PM 29.1630 -82.1560 157° South 393 452 17,200 -1,980 Descending FlightAware
07:12PM 29.1070 -82.1210 151° Southeast 384 442 16,000 -1,920 Descending FlightAware
07:13PM 29.0500 -82.0860 152° Southeast 374 430 14,900 -1,860 Descending FlightAware
07:13PM 28.9980 -82.0540 152° Southeast 365 420 13,800 -1,920 Descending FlightAware
07:13PM 28.9800 -82.0390 144° Southeast 360 414 13,400 -1,740 Descending FlightAware
07:14PM 28.9380 -81.9920 136° Southeast 352 405 12,400 -1,740 Descending FlightAware
07:14PM 28.8990 -81.9490 136° Southeast 345 397 11,400 -1,260 Descending FlightAware
07:15PM 28.8660 -81.9000 128° Southeast 343 395 11,000 -360 Descending FlightAware
07:16PM 28.8340 -81.8450 124° Southeast 340 391 11,000  Level FlightAware
07:16PM 28.8050 -81.7960 124° Southeast 339 390 11,000 -180 Level FlightAware
07:16PM 28.7910 -81.7750 127° Southeast 341 392 10,900 -600 Descending FlightAware
07:17PM 28.7440 -81.7360 144° Southeast 340 391 10,500 -720 Descending FlightAware
07:18PM 28.7010 -81.7030 146° Southeast 336 387 10,100 -480 Descending FlightAware
07:18PM 28.6540 -81.6650 145° Southeast 338 389 10,000 -120 Descending FlightAware
07:19PM 28.6180 -81.6370 146° Southeast 334 384 10,000  Level FlightAware
07:19PM 28.5860 -81.6120 146° Southeast 306 352 10,000 -420 Level FlightAware
07:19PM 28.5680 -81.5970 144° Southeast 298 343 9,700 -1,500 Descending FlightAware
07:20PM 28.5440 -81.5790 147° Southeast 299 344 9,100 -1,740 Descending FlightAware
07:20PM 28.5220 -81.5610 144° Southeast 302 348 8,600 -1,320 Descending FlightAware
07:20PM 28.5070 -81.5490 145° Southeast 293 337 8,400 -1,320 Descending FlightAware
07:21PM 28.4800 -81.5280 146° Southeast 290 334 7,800 -1,800 Descending FlightAware
07:21PM 28.4680 -81.5190 147° Southeast 291 335 7,400 -1,800 Descending FlightAware
07:21PM 28.4420 -81.4980 145° Southeast 289 333 6,800 -1,740 Descending FlightAware
07:22PM 28.4190 -81.4800 145° Southeast 284 327 6,100 -1,980 Descending FlightAware
07:22PM 28.4050 -81.4690 145° Southeast 282 325 5,700 -1,200 Descending FlightAware
07:22PM 28.3820 -81.4510 145° Southeast 261 300 5,400 -960 Descending FlightAware
07:23PM 28.3610 -81.4340 145° Southeast 244 281 5,000 -1,200 Descending FlightAware
07:23PM 28.3430 -81.4240 154° Southeast 241 277 4,600 -1,500 Descending FlightAware
07:23PM 28.3330 -81.4230 175° South 240 276 4,300 -1,740 Descending FlightAware
07:23PM 28.3110 -81.4220 178° South 238 274 3,800 -1,500 Descending FlightAware
07:23PM 28.3060 -81.4210 170° South 237 273 3,700 -1,440 Descending FlightAware
07:24PM 28.2990 -81.4170 153° Southeast 234 269 3,500 -1,440 Descending FlightAware
07:24PM 28.2920 -81.4100 139° Southeast 229 264 3,300 -1,620 Descending FlightAware
07:24PM 28.2880 -81.4020 120° Southeast 225 259 3,100 -1,740 Descending FlightAware
07:24PM 28.2860 -81.3960 111° Southeast 220 253 2,900 -1,140 Descending FlightAware
07:24PM 28.2860 -81.3640 90° East 199 229 2,400 -1,020 Descending FlightAware
07:25PM 28.2880 -81.3430 84° East 193 222 2,100 -900 Descending FlightAware
07:25PM 28.2890 -81.3380 77° East 193 222 2,000 -900 Descending FlightAware
07:25PM 28.3110 -81.3260 26° Northeast 190 219 1,600 -600 Descending FlightAware
07:26PM 28.3240 -81.3260 360° North 177 204 1,600  Level FlightAware
07:26PM 28.3430 -81.3270 357° North 177 204 1,600 -600 Level FlightAware
07:26PM 28.3580 -81.3260 North 152 175 1,200 -960 Descending FlightAware
07:27PM 28.3720 -81.3260 360° North 141 162 1,000 -300 Descending FlightAware
07:27PM 28.3870 -81.3270 357° North 141 162 1,000  Level FlightAware
07:35PM 28.4167 -81.3000 24° Northeast  Level FlightAware Approximate
07:36PM 28.4294 -81.3090 24° Northeast  Level Estimated
07:37PM 28.4294 -81.3090 24° Northeast  Level Estimated
07:38PM 28.4294 -81.3090 24° Northeast  Level Estimated
07:39PM 28.4294 -81.3090 24° Northeast  Level Estimated